createdAt,value
2023-08-06T00:02:04.432Z,69.53
2023-08-06T00:04:31.064Z,69.41
2023-08-06T00:06:57.741Z,69.19
2023-08-06T00:09:24.439Z,69.15
2023-08-06T00:11:51.398Z,69.09
2023-08-06T00:14:18.691Z,69.02
2023-08-06T00:16:46.371Z,69.16
2023-08-06T00:19:13.530Z,69.21
2023-08-06T00:21:40.238Z,69.13
2023-08-06T00:24:06.903Z,69.10
2023-08-06T00:26:33.551Z,69.07
2023-08-06T00:29:00.141Z,69.10
2023-08-06T00:31:27.077Z,69.05
2023-08-06T00:33:53.821Z,69.00
2023-08-06T00:36:20.398Z,69.03
2023-08-06T00:38:47.018Z,69.03
2023-08-06T00:41:14.971Z,69.14
2023-08-06T00:43:41.682Z,69.08
2023-08-06T00:46:08.456Z,69.11
2023-08-06T00:48:35.134Z,69.25
2023-08-06T00:51:02.821Z,69.19
2023-08-06T00:53:29.700Z,69.42
2023-08-06T00:55:56.477Z,69.52
2023-08-06T00:58:23.216Z,69.70
2023-08-06T01:00:49.920Z,69.81
2023-08-06T01:03:17.128Z,69.80
2023-08-06T01:05:43.953Z,69.81
2023-08-06T01:08:21.071Z,69.42
2023-08-06T01:11:15.507Z,69.22
2023-08-06T01:13:50.827Z,69.25
2023-08-06T01:16:21.951Z,69.02
2023-08-06T01:18:50.758Z,68.88
2023-08-06T01:21:18.413Z,68.89
2023-08-06T01:23:46.433Z,68.64
2023-08-06T01:26:40.058Z,69.07
2023-08-06T01:29:24.123Z,68.89
2023-08-06T01:31:54.419Z,68.56
2023-08-06T01:34:24.592Z,68.58
2023-08-06T01:36:52.381Z,68.91
2023-08-06T01:39:22.256Z,69.11
2023-08-06T01:41:52.421Z,69.65
2023-08-06T01:44:19.586Z,70.16
2023-08-06T01:46:46.366Z,70.44
2023-08-06T01:49:12.974Z,70.46
2023-08-06T01:51:39.546Z,70.59
2023-08-06T01:54:06.184Z,70.57
2023-08-06T01:56:32.806Z,70.59
2023-08-06T01:58:59.411Z,70.52
2023-08-06T02:01:26.041Z,70.40
2023-08-06T02:03:52.659Z,70.33
2023-08-06T02:06:19.270Z,70.31
2023-08-06T02:08:45.908Z,70.35
2023-08-06T02:11:12.659Z,70.37
2023-08-06T02:13:39.289Z,70.37
2023-08-06T02:19:17.775Z,70.50
2023-08-06T02:21:44.404Z,70.28
2023-08-06T02:24:11.153Z,70.26
2023-08-06T02:26:37.793Z,70.19
2023-08-06T02:29:04.408Z,70.11
2023-08-06T02:31:31.040Z,70.11
2023-08-06T02:33:59.704Z,69.84
2023-08-06T02:36:30.410Z,69.71
2023-08-06T02:38:58.977Z,69.84
2023-08-06T02:41:25.871Z,69.71
2023-08-06T02:43:53.996Z,69.69
2023-08-06T02:46:20.647Z,69.66
2023-08-06T02:48:47.382Z,69.77
2023-08-06T02:51:14.067Z,69.82
2023-08-06T02:53:41.268Z,69.72
2023-08-06T02:56:09.231Z,69.59
2023-08-06T02:59:07.950Z,69.67
2023-08-06T03:01:50.960Z,69.67
2023-08-06T03:04:22.792Z,69.61
2023-08-06T03:06:53.134Z,69.55
2023-08-06T03:09:20.663Z,69.43
2023-08-06T03:11:48.052Z,69.50
2023-08-06T03:14:15.126Z,69.46
2023-08-06T03:24:12.266Z,69.07
2023-08-06T03:26:39.648Z,68.95
2023-08-06T03:29:06.386Z,68.92
2023-08-06T03:31:34.286Z,68.87
2023-08-06T03:34:01.838Z,68.96
2023-08-06T03:36:29.616Z,69.01
2023-08-06T03:38:56.440Z,68.96
2023-08-06T03:41:23.185Z,68.70
2023-08-06T03:43:50.586Z,68.70
2023-08-06T03:46:22.112Z,68.67
2023-08-06T03:48:48.849Z,68.65
2023-08-06T03:51:15.429Z,68.48
2023-08-06T03:53:43.613Z,68.40
2023-08-06T03:56:10.446Z,68.10
2023-08-06T03:58:37.142Z,68.26
2023-08-06T04:01:04.601Z,67.91
2023-08-06T04:03:43.530Z,67.96
2023-08-06T04:06:10.272Z,68.07
2023-08-06T04:08:37.037Z,67.49
2023-08-06T04:11:04.739Z,67.36
2023-08-06T04:13:31.404Z,67.46
2023-08-06T04:16:03.276Z,67.12
2023-08-06T04:18:30.782Z,67.18
2023-08-06T04:20:58.551Z,66.89
2023-08-06T04:23:26.017Z,66.61
2023-08-06T04:25:58.405Z,66.47
2023-08-06T04:28:26.730Z,66.55
2023-08-06T04:30:54.924Z,66.40
2023-08-06T04:33:22.355Z,66.13
2023-08-06T04:35:55.225Z,66.03
2023-08-06T04:38:24.141Z,65.59
2023-08-06T04:40:50.773Z,65.51
2023-08-06T04:43:17.901Z,65.37
2023-08-06T04:45:48.994Z,65.09
2023-08-06T04:48:16.208Z,65.15
2023-08-06T04:50:47.136Z,64.58
2023-08-06T04:53:14.142Z,64.05
2023-08-06T04:55:41.133Z,63.93
2023-08-06T04:58:08.300Z,63.33
2023-08-06T05:00:35.069Z,63.23
2023-08-06T05:03:02.517Z,62.91
2023-08-06T05:05:30.037Z,62.73
2023-08-06T05:07:58.591Z,62.44
2023-08-06T05:10:27.153Z,61.91
2023-08-06T05:12:54.613Z,61.82
2023-08-06T05:15:21.412Z,60.87
2023-08-06T05:17:48.042Z,60.65
2023-08-06T05:20:14.724Z,60.24
2023-08-06T05:22:41.327Z,59.69
2023-08-06T05:25:08.284Z,59.36
2023-08-06T05:27:34.942Z,61.12
2023-08-06T05:30:01.483Z,63.18
2023-08-06T05:32:28.120Z,63.41
2023-08-06T05:34:54.833Z,62.19
2023-08-06T05:37:21.588Z,60.56
2023-08-06T05:39:48.251Z,60.60
2023-08-06T05:42:14.848Z,60.17
2023-08-06T05:44:41.719Z,60.01
2023-08-06T05:47:08.276Z,59.58
2023-08-06T05:49:34.852Z,59.60
2023-08-06T05:52:01.506Z,60.67
2023-08-06T05:54:28.078Z,63.14
2023-08-06T05:56:54.694Z,62.77
2023-08-06T05:59:21.276Z,61.82
2023-08-06T06:01:48.014Z,60.77
2023-08-06T06:04:14.766Z,59.16
2023-08-06T06:06:42.891Z,59.87
2023-08-06T06:09:09.608Z,61.02
2023-08-06T06:11:36.370Z,62.31
2023-08-06T06:14:03.199Z,63.78
2023-08-06T06:16:29.821Z,62.52
2023-08-06T06:18:58.297Z,61.08
2023-08-06T06:21:25.315Z,59.01
2023-08-06T06:23:52.584Z,58.67
2023-08-06T06:26:19.832Z,60.54
2023-08-06T06:28:46.435Z,61.97
2023-08-06T06:31:13.158Z,62.91
2023-08-06T06:33:39.814Z,62.44
2023-08-06T06:36:08.658Z,59.47
2023-08-06T06:38:35.635Z,58.05
2023-08-06T06:41:04.371Z,58.81
2023-08-06T06:43:31.487Z,60.66
2023-08-06T06:45:59.594Z,62.06
2023-08-06T06:48:30.473Z,62.79
2023-08-06T06:51:00.031Z,59.70
2023-08-06T06:53:29.910Z,58.60
2023-08-06T06:55:58.000Z,58.30
2023-08-06T06:58:24.607Z,56.65
2023-08-06T07:00:51.491Z,54.88
2023-08-06T07:03:19.307Z,53.71
2023-08-06T07:05:45.978Z,50.76
2023-08-06T07:08:12.689Z,49.63
2023-08-06T07:10:43.587Z,47.32
2023-08-06T07:13:11.176Z,45.69
2023-08-06T07:15:37.797Z,45.22
2023-08-06T07:18:04.399Z,45.28
2023-08-06T07:20:32.875Z,44.99
2023-08-06T07:23:00.178Z,43.80
2023-08-06T07:25:27.043Z,42.10
2023-08-06T07:27:53.728Z,41.17
2023-08-06T07:30:20.387Z,39.80
2023-08-06T07:32:47.031Z,37.85
2023-08-06T07:35:15.659Z,38.00
2023-08-06T07:37:42.625Z,38.52
2023-08-06T07:40:09.916Z,37.96
2023-08-06T07:42:37.217Z,37.53
2023-08-06T07:45:04.257Z,37.72
2023-08-06T07:47:30.971Z,37.79
2023-08-06T07:49:57.678Z,38.06
2023-08-06T07:52:24.325Z,38.44
2023-08-06T07:54:51.038Z,38.72
2023-08-06T07:57:17.878Z,38.88
2023-08-06T07:59:44.618Z,39.21
2023-08-06T08:02:11.275Z,39.05
2023-08-06T08:04:37.965Z,39.48
2023-08-06T08:07:04.846Z,39.19
2023-08-06T08:09:31.503Z,38.34
2023-08-06T08:12:01.094Z,36.95
2023-08-06T08:14:28.206Z,35.64
2023-08-06T08:16:54.882Z,34.86
2023-08-06T08:19:22.407Z,33.66
2023-08-06T08:21:49.126Z,33.25
2023-08-06T08:24:15.833Z,32.83
2023-08-06T08:26:42.451Z,32.64
2023-08-06T08:29:09.021Z,32.75
2023-08-06T08:31:40.471Z,33.39
2023-08-06T08:34:07.333Z,33.68
2023-08-06T08:36:33.997Z,33.18
2023-08-06T08:39:00.753Z,31.62
2023-08-06T08:41:30.919Z,30.92
2023-08-06T08:44:00.563Z,31.51
2023-08-06T08:46:31.912Z,32.29
2023-08-06T08:49:01.486Z,33.75
2023-08-06T08:51:29.341Z,34.89
2023-08-06T08:54:01.338Z,35.18
2023-08-06T08:56:27.990Z,34.64
2023-08-06T08:58:56.358Z,34.54
2023-08-06T09:01:23.837Z,34.45
2023-08-06T09:03:51.160Z,34.61
2023-08-06T09:06:19.798Z,34.48
2023-08-06T09:08:57.076Z,33.55
2023-08-06T09:11:24.605Z,33.50
2023-08-06T09:13:51.436Z,33.64
2023-08-06T09:16:18.131Z,35.30
2023-08-06T09:18:45.540Z,36.29
2023-08-06T09:21:17.427Z,37.17
2023-08-06T09:23:44.294Z,39.38
2023-08-06T09:26:16.420Z,40.60
2023-08-06T09:28:44.652Z,40.45
2023-08-06T09:31:11.923Z,40.18
2023-08-06T09:33:39.776Z,40.15
2023-08-06T09:36:11.951Z,41.54
2023-08-06T09:38:41.416Z,42.12
2023-08-06T09:41:09.464Z,42.54
2023-08-06T09:43:43.573Z,40.82
2023-08-06T09:46:15.508Z,38.54
2023-08-06T09:48:45.354Z,36.11
2023-08-06T09:51:13.922Z,35.72
2023-08-06T09:53:42.109Z,36.18
2023-08-06T09:56:10.826Z,37.21
2023-08-06T09:58:38.235Z,37.43
2023-08-06T10:01:05.384Z,37.11
2023-08-06T10:03:35.142Z,37.41
2023-08-06T10:06:03.671Z,38.76
2023-08-06T10:08:30.712Z,38.98
2023-08-06T10:10:58.766Z,39.36
2023-08-06T10:13:26.246Z,39.32
2023-08-06T10:15:56.025Z,37.94
2023-08-06T10:18:23.956Z,36.30
2023-08-06T10:20:50.603Z,34.10
2023-08-06T10:23:18.427Z,32.86
2023-08-06T10:25:54.480Z,31.47
2023-08-06T10:28:21.139Z,31.65
2023-08-06T10:30:48.973Z,31.04
2023-08-06T10:33:17.470Z,31.81
2023-08-06T10:35:49.486Z,31.86
2023-08-06T10:38:27.366Z,32.09
2023-08-06T10:40:54.043Z,32.04
2023-08-06T10:43:33.089Z,31.57
2023-08-06T10:46:00.807Z,29.44
2023-08-06T10:48:40.591Z,30.04
2023-08-06T10:51:15.151Z,31.07
2023-08-06T10:53:47.630Z,30.58
2023-08-06T10:56:28.441Z,30.76
2023-08-06T10:58:59.643Z,30.73
2023-08-06T11:01:30.383Z,30.44
2023-08-06T11:03:58.000Z,30.08
2023-08-06T11:06:26.002Z,31.29
2023-08-06T11:08:56.204Z,33.24
2023-08-06T11:11:24.550Z,33.69
2023-08-06T11:13:52.648Z,33.50
2023-08-06T11:16:22.868Z,32.84
2023-08-06T11:18:49.871Z,32.11
2023-08-06T11:21:20.555Z,31.25
2023-08-06T11:23:47.293Z,30.07
2023-08-06T11:26:16.351Z,29.84
2023-08-06T11:28:43.711Z,30.20
2023-08-06T11:31:20.338Z,29.83
2023-08-06T11:33:47.225Z,29.56
2023-08-06T11:36:13.907Z,29.60
2023-08-06T11:38:40.648Z,30.06
2023-08-06T11:41:08.166Z,30.72
2023-08-06T11:43:34.880Z,29.80
2023-08-06T11:46:01.579Z,29.52
2023-08-06T11:48:28.293Z,29.47
2023-08-06T11:50:58.923Z,29.64
2023-08-06T11:53:28.769Z,29.36
2023-08-06T11:55:55.452Z,29.14
2023-08-06T11:58:22.114Z,28.98
2023-08-06T12:00:49.455Z,28.98
2023-08-06T12:03:20.222Z,28.86
2023-08-06T12:05:48.337Z,28.61
2023-08-06T12:08:15.156Z,28.42
2023-08-06T12:10:41.908Z,28.54
2023-08-06T12:13:08.518Z,28.54
2023-08-06T12:15:35.132Z,29.70
2023-08-06T12:18:02.073Z,30.75
2023-08-06T12:20:29.625Z,32.13
2023-08-06T12:22:56.233Z,33.06
2023-08-06T12:25:24.654Z,34.34
2023-08-06T12:27:51.407Z,34.84
2023-08-06T12:30:18.115Z,36.28
2023-08-06T12:32:44.738Z,37.91
2023-08-06T12:35:11.453Z,38.92
2023-08-06T12:37:39.907Z,39.83
2023-08-06T12:40:28.603Z,41.13
2023-08-06T12:42:54.482Z,42.26
2023-08-06T12:45:22.613Z,42.33
2023-08-06T12:47:50.983Z,42.86
2023-08-06T12:50:18.550Z,43.45
2023-08-06T12:52:45.758Z,44.15
2023-08-06T12:55:12.588Z,43.96
2023-08-06T12:57:51.898Z,43.94
2023-08-06T13:00:24.003Z,44.29
2023-08-06T13:02:50.764Z,44.31
2023-08-06T13:05:17.563Z,44.10
2023-08-06T13:07:44.226Z,44.42
2023-08-06T13:10:10.906Z,44.14
2023-08-06T13:12:37.514Z,44.17
2023-08-06T13:15:04.491Z,44.46
2023-08-06T13:17:31.184Z,44.88
2023-08-06T13:19:58.795Z,44.78
2023-08-06T13:22:25.459Z,44.67
2023-08-06T13:24:52.093Z,45.09
2023-08-06T13:27:18.752Z,46.58
2023-08-06T13:29:45.362Z,46.55
2023-08-06T13:32:11.957Z,44.93
2023-08-06T13:34:38.582Z,43.80
2023-08-06T13:37:05.306Z,44.35
2023-08-06T13:39:31.950Z,44.44
2023-08-06T13:41:58.565Z,44.21
2023-08-06T13:44:25.277Z,44.47
2023-08-06T13:46:51.898Z,45.08
2023-08-06T13:49:18.518Z,45.12
2023-08-06T13:51:45.151Z,45.03
2023-08-06T13:54:11.794Z,45.20
2023-08-06T13:56:39.001Z,44.95
2023-08-06T13:59:05.851Z,45.13
2023-08-06T14:01:43.619Z,45.33
2023-08-06T14:04:16.363Z,45.09
2023-08-06T14:06:43.266Z,45.10
2023-08-06T14:09:09.979Z,45.98
2023-08-06T14:11:36.640Z,46.82
2023-08-06T14:14:04.479Z,47.42
2023-08-06T14:16:31.411Z,47.37
2023-08-06T14:18:58.058Z,47.49
2023-08-06T14:21:24.654Z,47.48
2023-08-06T14:23:51.459Z,47.23
2023-08-06T14:26:18.388Z,47.20
2023-08-06T14:28:45.182Z,46.84
2023-08-06T14:31:12.764Z,47.56
2023-08-06T14:33:39.519Z,48.82
2023-08-06T14:36:06.711Z,49.35
2023-08-06T14:38:36.770Z,49.76
2023-08-06T14:41:07.777Z,51.46
2023-08-06T14:43:34.600Z,52.38
2023-08-06T14:46:01.221Z,53.42
2023-08-06T14:48:28.032Z,53.94
2023-08-06T14:50:55.912Z,54.96
2023-08-06T14:53:22.710Z,55.24
2023-08-06T14:55:49.568Z,55.31
2023-08-06T14:58:16.192Z,54.96
2023-08-06T15:00:44.000Z,55.26
2023-08-06T15:03:10.859Z,54.85
2023-08-06T15:05:37.447Z,54.55
2023-08-06T15:08:04.390Z,55.17
2023-08-06T15:10:31.027Z,54.75
2023-08-06T15:13:00.604Z,54.37
2023-08-06T15:15:27.778Z,55.04
2023-08-06T15:17:54.513Z,54.70
2023-08-06T15:20:21.144Z,55.18
2023-08-06T15:22:47.767Z,55.46
2023-08-06T15:25:14.461Z,55.38
2023-08-06T15:27:41.257Z,55.01
2023-08-06T15:30:08.799Z,55.40
2023-08-06T15:32:35.628Z,55.73
2023-08-06T15:35:04.809Z,56.29
2023-08-06T15:37:32.139Z,56.90
2023-08-06T15:39:59.311Z,57.38
2023-08-06T15:42:26.041Z,58.01
2023-08-06T15:44:52.729Z,58.92
2023-08-06T15:47:19.449Z,58.30
2023-08-06T15:49:46.175Z,57.52
2023-08-06T15:52:12.858Z,57.99
2023-08-06T15:54:39.609Z,59.28
2023-08-06T15:57:06.393Z,59.14
2023-08-06T15:59:34.328Z,58.02
2023-08-06T16:02:03.782Z,57.68
2023-08-06T16:04:34.846Z,57.56
2023-08-06T16:07:01.807Z,57.27
2023-08-06T16:09:28.477Z,57.22
2023-08-06T16:11:55.772Z,57.45
2023-08-06T16:14:22.662Z,57.60
2023-08-06T16:16:49.420Z,57.51
2023-08-06T16:19:16.323Z,58.02
2023-08-06T16:21:43.000Z,57.79
2023-08-06T16:24:10.477Z,58.11
2023-08-06T16:26:37.691Z,58.40
2023-08-06T16:29:04.820Z,58.52
2023-08-06T16:31:31.647Z,58.53
2023-08-06T16:33:58.445Z,58.85
2023-08-06T16:36:25.919Z,59.11
2023-08-06T16:38:52.652Z,59.27
2023-08-06T16:41:19.431Z,59.13
2023-08-06T16:43:46.695Z,59.16
2023-08-06T16:46:13.475Z,59.59
2023-08-06T16:48:40.896Z,59.37
2023-08-06T16:51:07.626Z,59.18
2023-08-06T16:53:34.283Z,60.63
2023-08-06T16:56:00.960Z,61.28
2023-08-06T16:58:27.951Z,61.66
2023-08-06T17:00:56.768Z,63.06
2023-08-06T17:03:23.680Z,62.47
2023-08-06T17:05:50.432Z,60.80
2023-08-06T17:08:17.153Z,58.68
2023-08-06T17:10:43.907Z,58.92
2023-08-06T17:13:20.142Z,59.75
2023-08-06T17:15:50.666Z,60.58
2023-08-06T17:18:18.223Z,60.66
2023-08-06T17:20:46.730Z,61.47
2023-08-06T17:23:13.864Z,63.48
2023-08-06T17:25:45.104Z,63.22
2023-08-06T17:28:12.508Z,61.58
2023-08-06T17:30:43.581Z,58.64
2023-08-06T17:33:12.544Z,58.57
2023-08-06T17:35:44.522Z,59.82
2023-08-06T17:38:12.225Z,61.25
2023-08-06T17:40:39.155Z,61.80
2023-08-06T17:43:05.921Z,61.66
2023-08-06T17:45:32.942Z,58.78
2023-08-06T17:47:59.668Z,57.50
2023-08-06T17:50:26.347Z,57.08
2023-08-06T17:52:53.614Z,58.04
2023-08-06T17:55:20.286Z,58.20
2023-08-06T17:57:46.950Z,58.83
2023-08-06T18:00:13.796Z,61.02
2023-08-06T18:02:44.571Z,63.07
2023-08-06T18:05:15.946Z,61.39
2023-08-06T18:07:45.777Z,59.59
2023-08-06T18:10:13.181Z,59.64
2023-08-06T18:12:43.470Z,61.72
2023-08-06T18:15:12.553Z,63.40
2023-08-06T18:17:42.766Z,62.35
2023-08-06T18:20:10.504Z,60.34
2023-08-06T18:22:39.497Z,59.08
2023-08-06T18:25:08.858Z,60.76
2023-08-06T18:27:35.870Z,63.27
2023-08-06T18:30:03.390Z,63.43
2023-08-06T18:32:30.102Z,62.11
2023-08-06T18:34:56.758Z,61.72
2023-08-06T18:37:23.320Z,61.54
2023-08-06T18:39:50.825Z,61.16
2023-08-06T18:42:17.963Z,61.37
2023-08-06T18:44:44.651Z,61.61
2023-08-06T18:47:11.302Z,61.86
2023-08-06T18:49:37.928Z,62.00
2023-08-06T18:52:06.532Z,62.22
2023-08-06T18:54:33.298Z,62.51
2023-08-06T18:56:59.957Z,62.45
2023-08-06T18:59:27.092Z,61.19
2023-08-06T19:01:53.893Z,60.60
2023-08-06T19:04:20.775Z,59.29
2023-08-06T19:06:47.752Z,60.80
2023-08-06T19:09:16.012Z,62.90
2023-08-06T19:11:42.773Z,62.74
2023-08-06T19:14:09.497Z,60.51
2023-08-06T19:16:37.082Z,59.48
2023-08-06T19:19:04.121Z,60.45
2023-08-06T19:21:30.818Z,63.30
2023-08-06T19:23:58.550Z,63.26
2023-08-06T19:26:27.234Z,62.45
2023-08-06T19:28:53.938Z,62.06
2023-08-06T19:31:20.640Z,61.62
2023-08-06T19:33:47.424Z,61.40
2023-08-06T19:36:15.043Z,61.36
2023-08-06T19:38:41.722Z,61.62
2023-08-06T19:41:12.501Z,60.17
2023-08-06T19:43:41.638Z,58.92
2023-08-06T19:46:08.408Z,61.45
2023-08-06T19:48:35.061Z,63.58
2023-08-06T19:51:02.181Z,63.20
2023-08-06T19:53:32.561Z,62.26
2023-08-06T19:56:01.011Z,60.81
2023-08-06T19:58:30.182Z,60.00
2023-08-06T20:00:59.677Z,59.65
2023-08-06T20:03:32.791Z,62.17
2023-08-06T20:06:03.643Z,63.91
2023-08-06T20:08:32.834Z,63.36
2023-08-06T20:11:00.798Z,61.20
2023-08-06T20:13:27.548Z,60.46
2023-08-06T20:15:55.447Z,60.60
2023-08-06T20:18:27.563Z,59.46
2023-08-06T20:20:55.516Z,60.43
2023-08-06T20:23:23.539Z,62.94
2023-08-06T20:25:51.476Z,63.05
2023-08-06T20:28:18.165Z,62.86
2023-08-06T20:30:44.982Z,61.93
2023-08-06T20:33:12.256Z,61.11
2023-08-06T20:35:41.151Z,60.45
2023-08-06T20:38:09.217Z,60.30
2023-08-06T20:40:37.010Z,60.00
2023-08-06T20:43:03.980Z,59.87
2023-08-06T20:45:30.839Z,59.71
2023-08-06T20:47:57.590Z,61.99
2023-08-06T20:50:25.548Z,63.92
2023-08-06T20:52:52.745Z,63.03
2023-08-06T20:55:20.386Z,62.53
2023-08-06T20:57:47.218Z,62.09
2023-08-06T21:00:14.453Z,61.49
2023-08-06T21:02:41.217Z,61.24
2023-08-06T21:05:08.038Z,60.55
2023-08-06T21:07:34.834Z,60.94
2023-08-06T21:10:01.702Z,61.11
2023-08-06T21:12:28.443Z,60.44
2023-08-06T21:14:55.441Z,60.31
2023-08-06T21:17:22.344Z,60.29
2023-08-06T21:19:52.268Z,60.38
2023-08-06T21:22:18.923Z,60.39
2023-08-06T21:24:45.662Z,60.29
2023-08-06T21:27:12.399Z,60.46
2023-08-06T21:29:39.477Z,60.19
2023-08-06T21:32:07.023Z,59.83
2023-08-06T21:34:34.276Z,59.55
2023-08-06T21:37:01.017Z,61.09
2023-08-06T21:39:27.681Z,63.74
2023-08-06T21:41:54.632Z,63.54
2023-08-06T21:44:21.523Z,62.29
2023-08-06T21:46:48.197Z,61.69
2023-08-06T21:49:14.982Z,60.93
2023-08-06T21:51:41.790Z,60.39
2023-08-06T21:54:12.106Z,60.26
2023-08-06T21:56:39.368Z,60.69
2023-08-06T21:59:09.153Z,60.32
2023-08-06T22:01:35.794Z,59.74
2023-08-06T22:04:02.446Z,59.31
2023-08-06T22:06:29.113Z,61.31
2023-08-06T22:08:58.432Z,63.96
2023-08-06T22:11:25.133Z,63.94
2023-08-06T22:13:51.861Z,62.47
2023-08-06T22:16:18.657Z,61.89
2023-08-06T22:18:45.828Z,61.49
2023-08-06T22:21:12.551Z,61.33
2023-08-06T22:23:39.285Z,60.50
2023-08-06T22:26:05.993Z,60.63
2023-08-06T22:28:32.705Z,60.52
2023-08-06T22:30:59.472Z,60.45
2023-08-06T22:33:30.706Z,59.94
2023-08-06T22:35:57.863Z,60.14
2023-08-06T22:38:27.008Z,60.25
2023-08-06T22:40:53.768Z,59.95
2023-08-06T22:43:20.442Z,59.83
2023-08-06T22:45:47.141Z,60.27
2023-08-06T22:48:13.834Z,60.03
2023-08-06T22:50:40.513Z,60.41
2023-08-06T22:53:08.305Z,60.86
2023-08-06T22:58:08.739Z,60.44
2023-08-06T23:00:35.437Z,60.11
2023-08-06T23:03:09.742Z,60.36
2023-08-06T23:05:38.509Z,61.10
2023-08-06T23:08:05.616Z,62.75
2023-08-06T23:10:32.580Z,64.42
2023-08-06T23:12:59.215Z,65.16
2023-08-06T23:15:25.897Z,66.18
2023-08-06T23:17:52.633Z,67.06
2023-08-06T23:20:19.568Z,67.61
2023-08-06T23:22:46.192Z,68.19
2023-08-06T23:25:12.812Z,68.27
2023-08-06T23:27:39.425Z,67.64
2023-08-06T23:30:07.346Z,67.54
2023-08-06T23:32:35.057Z,67.24
2023-08-06T23:35:02.222Z,67.09
2023-08-06T23:37:28.878Z,66.11
2023-08-06T23:39:56.605Z,66.48
2023-08-06T23:42:23.985Z,66.37
2023-08-06T23:44:51.248Z,66.34
2023-08-06T23:47:17.855Z,66.14
2023-08-06T23:49:44.849Z,66.01
2023-08-06T23:52:11.435Z,65.69
2023-08-06T23:54:38.039Z,64.76
2023-08-06T23:57:04.987Z,64.26
2023-08-06T23:59:31.592Z,63.82
